createdAt,value
2022-12-16T00:01:28.379Z,102727.66
2022-12-16T00:04:03.279Z,102728.63
2022-12-16T00:06:34.500Z,102727.13
2022-12-16T00:09:05.697Z,102728.56
2022-12-16T00:11:46.237Z,102727.22
2022-12-16T00:14:15.084Z,102728.44
2022-12-16T00:16:43.776Z,102717.59
2022-12-16T00:19:12.624Z,102720.50
2022-12-16T00:21:41.497Z,102722.31
2022-12-16T00:24:10.173Z,102711.47
2022-12-16T00:26:39.006Z,102709.97
2022-12-16T00:29:11.897Z,102711.53
2022-12-16T00:31:43.801Z,102702.56
2022-12-16T00:34:12.484Z,102703.28
2022-12-16T00:36:44.310Z,102694.66
2022-12-16T00:39:18.265Z,102692.06
2022-12-16T00:41:48.385Z,102690.59
2022-12-16T00:44:17.260Z,102698.38
2022-12-16T00:46:46.321Z,102707.22
2022-12-16T00:49:25.479Z,102694.16
2022-12-16T00:51:59.674Z,102690.63
2022-12-16T00:54:29.742Z,102688.81
2022-12-16T00:56:58.539Z,102680.66
2022-12-16T00:59:30.187Z,102679.34
2022-12-16T01:01:59.164Z,102686.53
2022-12-16T01:04:28.054Z,102683.03
2022-12-16T01:06:59.964Z,102684.97
2022-12-16T01:09:37.607Z,102687.19
2022-12-16T01:12:15.398Z,102684.75
2022-12-16T01:14:47.523Z,102677.06
2022-12-16T01:17:18.685Z,102686.19
2022-12-16T01:19:49.343Z,102692.00
2022-12-16T01:22:29.085Z,102677.72
2022-12-16T01:24:58.199Z,102683.78
2022-12-16T01:27:27.744Z,102684.06
2022-12-16T01:30:02.357Z,102693.69
2022-12-16T01:32:31.256Z,102690.94
2022-12-16T01:35:29.521Z,102703.06
2022-12-16T01:37:58.977Z,102698.13
2022-12-16T01:40:30.011Z,102697.63
2022-12-16T01:42:58.753Z,102705.84
2022-12-16T01:45:37.268Z,102700.94
2022-12-16T01:48:26.958Z,102701.78
2022-12-16T01:51:03.135Z,102707.28
2022-12-16T01:53:33.125Z,102703.97
2022-12-16T01:56:05.493Z,102701.81
2022-12-16T01:58:38.437Z,102705.38
2022-12-16T02:01:11.141Z,102701.56
2022-12-16T02:03:43.446Z,102716.91
2022-12-16T02:06:15.527Z,102721.03
2022-12-16T02:08:44.423Z,102715.25
2022-12-16T02:11:57.209Z,102710.31
2022-12-16T02:15:02.747Z,102715.28
2022-12-16T02:17:48.901Z,102710.38
2022-12-16T02:20:38.977Z,102709.84
2022-12-16T02:23:22.314Z,102711.50
2022-12-16T02:26:33.533Z,102707.38
2022-12-16T02:29:07.882Z,102710.66
2022-12-16T02:31:43.881Z,102720.25
2022-12-16T02:34:33.919Z,102717.50
2022-12-16T02:37:31.748Z,102726.28
2022-12-16T02:40:02.152Z,102712.03
2022-12-16T02:42:46.846Z,102713.16
2022-12-16T02:45:22.851Z,102711.50
2022-12-16T02:47:52.283Z,102712.03
2022-12-16T02:50:40.589Z,102717.81
2022-12-16T02:53:10.724Z,102713.69
2022-12-16T02:55:51.827Z,102727.63
2022-12-16T02:58:36.430Z,102725.19
2022-12-16T03:01:17.755Z,102730.66
2022-12-16T03:03:55.784Z,102729.00
2022-12-16T03:06:26.185Z,102721.91
2022-12-16T03:09:03.356Z,102723.28
2022-12-16T03:11:38.259Z,102711.53
2022-12-16T03:14:12.341Z,102709.03
2022-12-16T03:16:42.709Z,102712.63
2022-12-16T03:19:13.137Z,102705.50
2022-12-16T03:21:56.768Z,102706.59
2022-12-16T03:24:35.443Z,102709.34
2022-12-16T03:27:19.612Z,102708.22
2022-12-16T03:30:01.416Z,102698.66
2022-12-16T03:32:49.852Z,102688.03
2022-12-16T03:35:44.798Z,102695.41
2022-12-16T03:38:17.247Z,102706.31
2022-12-16T03:40:46.508Z,102710.16
2022-12-16T03:43:19.007Z,102715.88
2022-12-16T03:46:07.450Z,102708.22
2022-12-16T03:48:39.402Z,102709.84
2022-12-16T03:51:08.630Z,102704.66
2022-12-16T03:53:37.336Z,102708.22
2022-12-16T03:56:06.113Z,102698.13
2022-12-16T03:58:40.924Z,102705.50
2022-12-16T04:01:15.061Z,102716.97
2022-12-16T04:03:44.041Z,102701.13
2022-12-16T04:06:13.251Z,102708.22
2022-12-16T04:08:41.970Z,102708.78
2022-12-16T04:11:32.199Z,102718.34
2022-12-16T04:14:22.355Z,102733.66
2022-12-16T04:17:11.076Z,102721.06
2022-12-16T04:20:00.744Z,102709.34
2022-12-16T04:22:58.352Z,102706.03
2022-12-16T04:25:39.068Z,102694.03
2022-12-16T04:28:10.038Z,102694.53
2022-12-16T04:30:39.024Z,102697.28
2022-12-16T04:33:36.784Z,102692.34
2022-12-16T04:36:27.506Z,102692.91
2022-12-16T04:39:14.690Z,102692.06
2022-12-16T04:42:03.116Z,102706.25
2022-12-16T04:44:50.898Z,102707.91
2022-12-16T04:47:37.653Z,102710.34
2022-12-16T04:50:28.255Z,102707.00
2022-12-16T04:53:15.468Z,102705.16
2022-12-16T04:56:04.617Z,102717.44
2022-12-16T04:58:57.615Z,102723.47
2022-12-16T05:02:01.359Z,102731.34
2022-12-16T05:04:50.135Z,102727.13
2022-12-16T05:07:38.765Z,102719.59
2022-12-16T05:10:28.265Z,102722.94
2022-12-16T05:13:17.319Z,102719.34
2022-12-16T05:16:04.384Z,102716.66
2022-12-16T05:18:56.919Z,102721.03
2022-12-16T05:21:47.018Z,102734.84
2022-12-16T05:24:38.933Z,102734.59
2022-12-16T05:27:27.832Z,102724.84
2022-12-16T05:30:18.002Z,102731.28
2022-12-16T05:33:10.971Z,102746.25
2022-12-16T05:35:58.010Z,102744.06
2022-12-16T05:38:48.071Z,102751.22
2022-12-16T05:41:35.087Z,102751.56
2022-12-16T05:44:23.278Z,102763.25
2022-12-16T05:47:10.536Z,102751.53
2022-12-16T05:49:57.565Z,102759.44
2022-12-16T05:52:44.275Z,102755.81
2022-12-16T05:55:34.202Z,102751.75
2022-12-16T05:58:23.034Z,102743.03
2022-12-16T06:01:10.753Z,102739.78
2022-12-16T06:04:03.340Z,102737.03
2022-12-16T06:06:50.668Z,102733.13
2022-12-16T06:09:37.336Z,102734.22
2022-12-16T06:12:27.853Z,102735.81
2022-12-16T06:15:16.084Z,102737.88
2022-12-16T06:18:07.884Z,102725.41
2022-12-16T06:20:55.999Z,102728.38
2022-12-16T06:23:43.028Z,102726.78
2022-12-16T06:26:30.809Z,102721.78
2022-12-16T06:29:17.898Z,102718.78
2022-12-16T06:32:24.336Z,102710.72
2022-12-16T06:35:15.528Z,102710.34
2022-12-16T06:38:06.247Z,102706.31
2022-12-16T06:41:00.671Z,102711.63
2022-12-16T06:43:49.391Z,102708.78
2022-12-16T06:46:39.093Z,102710.00
2022-12-16T06:49:27.430Z,102706.47
2022-12-16T06:52:14.470Z,102712.03
2022-12-16T06:55:07.450Z,102705.22
2022-12-16T06:57:57.523Z,102711.78
2022-12-16T07:00:47.676Z,102709.06
2022-12-16T07:03:38.262Z,102708.00
2022-12-16T07:06:25.472Z,102719.19
2022-12-16T07:09:12.786Z,102708.53
2022-12-16T07:11:59.773Z,102698.69
2022-12-16T07:14:54.124Z,102706.88
2022-12-16T07:17:41.271Z,102698.19
2022-12-16T07:20:32.223Z,102703.03
2022-12-16T07:23:19.980Z,102704.94
2022-12-16T07:26:07.457Z,102706.09
2022-12-16T07:28:54.780Z,102700.94
2022-12-16T07:31:41.364Z,102702.84
2022-12-16T07:34:35.705Z,102694.91
2022-12-16T07:37:26.247Z,102695.47
2022-12-16T07:40:13.348Z,102696.56
2022-12-16T07:43:08.120Z,102698.19
2022-12-16T07:45:58.048Z,102697.38
2022-12-16T07:48:54.104Z,102710.44
2022-12-16T07:51:48.326Z,102707.47
2022-12-16T07:54:35.169Z,102705.81
2022-12-16T07:57:22.374Z,102693.25
2022-12-16T08:00:10.202Z,102688.84
2022-12-16T08:03:00.616Z,102673.16
2022-12-16T08:05:47.808Z,102675.16
2022-12-16T08:08:34.882Z,102670.03
2022-12-16T08:11:25.273Z,102664.53
2022-12-16T08:23:35.694Z,102645.41
2022-12-16T08:26:23.260Z,102651.50
2022-12-16T08:29:35.071Z,102651.00
2022-12-16T08:32:17.346Z,102656.50
2022-12-16T08:35:07.655Z,102667.19
2022-12-16T08:37:55.618Z,102659.91
2022-12-16T08:40:42.703Z,102658.38
2022-12-16T08:43:29.913Z,102653.19
2022-12-16T08:46:17.168Z,102654.22
2022-12-16T08:49:07.542Z,102652.53
2022-12-16T08:51:54.611Z,102655.84
2022-12-16T08:54:42.591Z,102656.06
2022-12-16T08:57:29.812Z,102653.16
2022-12-16T09:00:17.030Z,102655.97
2022-12-16T09:03:04.005Z,102649.94
2022-12-16T09:05:51.366Z,102645.59
2022-12-16T09:08:38.529Z,102642.47
2022-12-16T09:11:25.138Z,102636.75
2022-12-16T09:14:14.743Z,102644.97
2022-12-16T09:17:01.841Z,102638.56
2022-12-16T09:19:51.860Z,102630.66
2022-12-16T09:22:41.059Z,102626.00
2022-12-16T09:25:28.148Z,102626.00
2022-12-16T09:28:17.682Z,102623.94
2022-12-16T09:31:07.456Z,102603.97
2022-12-16T09:33:55.853Z,102606.16
2022-12-16T09:36:46.416Z,102624.13
2022-12-16T09:39:33.532Z,102626.22
2022-12-16T09:42:57.287Z,102625.72
2022-12-16T09:45:53.149Z,102624.75
2022-12-16T09:48:56.106Z,102623.88
2022-12-16T09:51:44.603Z,102628.72
2022-12-16T09:54:38.781Z,102625.47
2022-12-16T09:57:27.094Z,102630.41
2022-12-16T10:00:19.735Z,102633.13
2022-12-16T10:03:10.703Z,102639.94
2022-12-16T10:06:10.575Z,102633.66
2022-12-16T10:09:13.004Z,102635.03
2022-12-16T10:12:24.932Z,102646.75
2022-12-16T10:15:33.979Z,102630.94
2022-12-16T10:18:32.292Z,102630.41
2022-12-16T10:21:19.811Z,102636.84
2022-12-16T10:24:30.648Z,102632.00
2022-12-16T10:27:41.443Z,102636.06
2022-12-16T10:30:33.569Z,102636.34
2022-12-16T10:33:21.664Z,102640.19
2022-12-16T10:36:12.486Z,102636.34
2022-12-16T10:39:14.879Z,102641.75
2022-12-16T10:42:06.617Z,102629.28
2022-12-16T10:45:14.570Z,102616.72
2022-12-16T10:48:04.172Z,102610.72
2022-12-16T10:50:56.811Z,102600.22
2022-12-16T10:53:51.336Z,102591.56
2022-12-16T10:57:22.590Z,102585.94
2022-12-16T11:00:35.257Z,102581.47
2022-12-16T11:03:42.709Z,102583.41
2022-12-16T11:06:32.374Z,102585.34
2022-12-16T11:09:49.399Z,102595.41
2022-12-16T11:12:49.332Z,102593.22
2022-12-16T11:15:51.124Z,102587.41
2022-12-16T11:18:43.702Z,102580.97
2022-12-16T11:21:40.028Z,102573.09
2022-12-16T11:24:40.815Z,102575.56
2022-12-16T11:27:35.562Z,102564.38
2022-12-16T11:30:41.262Z,102556.19
2022-12-16T11:33:47.258Z,102561.63
2022-12-16T11:36:39.793Z,102562.72
2022-12-16T11:39:33.912Z,102554.28
2022-12-16T11:42:22.009Z,102547.97
2022-12-16T11:45:32.050Z,102537.09
2022-12-16T11:48:35.889Z,102541.47
2022-12-16T11:51:27.901Z,102534.94
2022-12-16T11:54:42.863Z,102528.41
2022-12-16T11:58:10.387Z,102529.50
2022-12-16T12:01:08.272Z,102522.91
2022-12-16T12:04:04.938Z,102532.38
2022-12-16T12:07:22.835Z,102537.63
2022-12-16T12:10:20.378Z,102519.13
2022-12-16T12:13:22.520Z,102520.41
2022-12-16T12:16:29.111Z,102519.78
2022-12-16T12:19:43.672Z,102515.44
2022-12-16T12:22:46.228Z,102511.69
2022-12-16T12:25:52.987Z,102511.25
2022-12-16T12:28:51.902Z,102509.63
2022-12-16T12:31:51.050Z,102493.38
2022-12-16T12:34:40.883Z,102489.56
2022-12-16T12:38:05.731Z,102483.13
2022-12-16T12:41:22.730Z,102484.34
2022-12-16T12:44:15.508Z,102489.00
2022-12-16T12:47:29.689Z,102498.13
2022-12-16T12:50:21.826Z,102493.22
2022-12-16T12:53:49.961Z,102489.75
2022-12-16T12:56:55.230Z,102497.19
2022-12-16T12:59:50.260Z,102491.75
2022-12-16T13:02:43.974Z,102485.78
2022-12-16T13:05:36.417Z,102489.00
2022-12-16T13:08:57.406Z,102487.59
2022-12-16T13:11:44.404Z,102483.56
2022-12-16T13:15:22.260Z,102486.78
2022-12-16T13:18:18.753Z,102472.13
2022-12-16T13:21:16.185Z,102467.78
2022-12-16T13:24:10.532Z,102472.09
2022-12-16T13:27:20.984Z,102475.94
2022-12-16T13:30:25.004Z,102471.13
2022-12-16T13:33:18.827Z,102464.09
2022-12-16T13:36:16.084Z,102461.91
2022-12-16T13:39:08.506Z,102457.53
2022-12-16T13:41:58.563Z,102469.75
2022-12-16T13:45:03.922Z,102469.50
2022-12-16T13:48:01.072Z,102469.53
2022-12-16T13:51:04.037Z,102470.59
2022-12-16T13:54:04.019Z,102478.25
2022-12-16T13:57:00.111Z,102474.13
2022-12-16T13:59:52.019Z,102468.13
2022-12-16T14:02:59.491Z,102468.94
2022-12-16T14:05:48.533Z,102469.75
2022-12-16T14:08:39.167Z,102460.50
2022-12-16T14:11:40.947Z,102452.59
2022-12-16T14:14:42.870Z,102454.78
2022-12-16T14:18:01.056Z,102443.31
2022-12-16T14:20:55.767Z,102436.75
2022-12-16T14:24:00.329Z,102440.56
2022-12-16T14:26:50.579Z,102436.75
2022-12-16T14:30:01.978Z,102423.72
2022-12-16T14:32:56.038Z,102409.56
2022-12-16T14:35:46.696Z,102409.50
2022-12-16T14:38:46.091Z,102407.84
2022-12-16T14:41:44.294Z,102415.19
2022-12-16T14:44:42.116Z,102424.78
2022-12-16T14:47:41.037Z,102420.13
2022-12-16T14:50:43.023Z,102423.69
2022-12-16T14:53:39.866Z,102420.41
2022-12-16T14:56:34.381Z,102409.75
2022-12-16T14:59:39.272Z,102407.03
2022-12-16T15:02:53.110Z,102405.06
2022-12-16T15:05:52.431Z,102392.06
2022-12-16T15:08:43.990Z,102396.16
2022-12-16T15:11:34.843Z,102391.97
2022-12-16T15:14:23.107Z,102389.31
2022-12-16T15:17:12.709Z,102378.47
2022-12-16T15:20:12.198Z,102380.88
2022-12-16T15:23:08.762Z,102371.31
2022-12-16T15:26:08.276Z,102373.53
2022-12-16T15:28:55.429Z,102373.22
2022-12-16T15:32:02.946Z,102369.66
2022-12-16T15:35:05.900Z,102373.53
2022-12-16T15:38:04.493Z,102374.63
2022-12-16T15:41:00.079Z,102371.03
2022-12-16T15:44:05.361Z,102361.28
2022-12-16T15:46:54.872Z,102367.03
2022-12-16T15:49:51.136Z,102355.56
2022-12-16T15:52:55.635Z,102364.28
2022-12-16T15:56:04.186Z,102370.72
2022-12-16T15:58:56.265Z,102370.22
2022-12-16T16:01:47.534Z,102370.53
2022-12-16T16:04:43.836Z,102368.88
2022-12-16T16:07:44.265Z,102371.31
2022-12-16T16:10:41.241Z,102369.41
2022-12-16T16:13:31.007Z,102365.19
2022-12-16T16:16:23.609Z,102363.13
2022-12-16T16:19:31.017Z,102351.09
2022-12-16T16:22:23.145Z,102355.53
2022-12-16T16:25:10.277Z,102364.75
2022-12-16T16:27:58.012Z,102363.50
2022-12-16T16:30:45.422Z,102371.72
2022-12-16T16:33:33.698Z,102369.09
2022-12-16T16:36:20.666Z,102356.59
2022-12-16T16:39:08.893Z,102361.97
2022-12-16T16:41:59.176Z,102364.44
2022-12-16T16:44:46.336Z,102359.31
2022-12-16T16:47:41.184Z,102368.06
2022-12-16T16:50:36.314Z,102374.06
2022-12-16T16:53:23.302Z,102386.34
2022-12-16T16:56:19.653Z,102384.38
2022-12-16T16:59:07.386Z,102383.88
2022-12-16T17:01:54.754Z,102384.44
2022-12-16T17:04:44.142Z,102373.03
2022-12-16T17:07:31.516Z,102372.47
2022-12-16T17:10:18.026Z,102385.03
2022-12-16T17:13:07.952Z,102399.47
2022-12-16T17:15:58.336Z,102409.53
2022-12-16T17:18:52.563Z,102415.78
2022-12-16T17:21:42.471Z,102421.00
2022-12-16T17:24:29.220Z,102415.00
2022-12-16T17:27:16.505Z,102418.56
2022-12-16T17:30:03.561Z,102422.63
2022-12-16T17:32:53.084Z,102419.38
2022-12-16T17:35:42.863Z,102418.84
2022-12-16T17:38:37.002Z,102414.22
2022-12-16T17:41:24.160Z,102408.47
2022-12-16T17:44:21.404Z,102418.56
2022-12-16T17:47:08.746Z,102412.81
2022-12-16T17:49:56.270Z,102418.84
2022-12-16T17:52:44.803Z,102401.91
2022-12-16T17:55:34.791Z,102392.66
2022-12-16T17:58:22.199Z,102402.47
2022-12-16T18:01:11.287Z,102404.09
2022-12-16T18:03:58.951Z,102414.44
2022-12-16T18:06:45.520Z,102418.22
2022-12-16T18:09:35.139Z,102411.66
2022-12-16T18:12:22.878Z,102411.13
2022-12-16T18:15:10.116Z,102418.19
2022-12-16T18:17:58.827Z,102408.88
2022-12-16T18:20:46.109Z,102411.63
2022-12-16T18:23:37.617Z,102418.97
2022-12-16T18:26:27.067Z,102398.44
2022-12-16T18:29:15.300Z,102399.53
2022-12-16T18:32:08.040Z,102414.22
2022-12-16T18:34:55.094Z,102428.44
2022-12-16T18:37:45.331Z,102426.69
2022-12-16T18:40:37.558Z,102428.00
2022-12-16T18:43:24.755Z,102419.47
2022-12-16T18:46:13.508Z,102418.88
2022-12-16T18:49:09.504Z,102403.53
2022-12-16T18:51:56.658Z,102396.03
2022-12-16T18:54:46.724Z,102392.88
2022-12-16T18:57:40.155Z,102393.31
2022-12-16T19:00:27.809Z,102402.97
2022-12-16T19:03:14.634Z,102403.06
2022-12-16T19:06:02.124Z,102388.75
2022-12-16T19:08:52.174Z,102392.38
2022-12-16T19:11:39.119Z,102372.78
2022-12-16T19:14:26.204Z,102378.50
2022-12-16T19:17:14.932Z,102370.88
2022-12-16T19:20:02.889Z,102371.72
2022-12-16T19:22:49.909Z,102375.34
2022-12-16T19:25:37.150Z,102367.19
2022-12-16T19:28:23.827Z,102356.50
2022-12-16T19:31:19.855Z,102344.81
2022-12-16T19:34:13.947Z,102341.63
2022-12-16T19:37:01.100Z,102336.78
2022-12-16T19:39:52.997Z,102332.47
2022-12-16T19:42:43.496Z,102323.03
2022-12-16T19:45:30.627Z,102314.91
2022-12-16T19:48:35.684Z,102310.66
2022-12-16T19:51:23.414Z,102317.09
2022-12-16T19:54:12.955Z,102310.72
2022-12-16T19:57:02.085Z,102298.66
2022-12-16T19:59:49.192Z,102296.50
2022-12-16T20:02:39.532Z,102291.28
2022-12-16T20:05:29.189Z,102283.63
2022-12-16T20:08:23.295Z,102279.84
2022-12-16T20:11:15.211Z,102275.09
2022-12-16T20:14:02.477Z,102275.03
2022-12-16T20:16:49.133Z,102264.88
2022-12-16T20:19:45.618Z,102263.25
2022-12-16T20:22:34.130Z,102256.94
2022-12-16T20:25:23.631Z,102260.69
2022-12-16T20:28:10.518Z,102252.59
2022-12-16T20:31:00.449Z,102245.31
2022-12-16T20:33:49.343Z,102231.25
2022-12-16T20:36:42.185Z,102228.53
2022-12-16T20:39:29.451Z,102222.94
2022-12-16T20:42:16.595Z,102215.00
2022-12-16T20:45:06.337Z,102221.53
2022-12-16T20:47:53.487Z,102211.97
2022-12-16T20:50:44.727Z,102204.31
2022-12-16T20:53:32.063Z,102209.69
2022-12-16T20:56:22.306Z,102209.44
2022-12-16T20:59:09.311Z,102204.97
2022-12-16T21:02:22.272Z,102188.22
2022-12-16T21:05:05.707Z,102186.22
2022-12-16T21:07:53.555Z,102182.94
2022-12-16T21:10:40.962Z,102182.59
2022-12-16T21:13:33.610Z,102185.66
2022-12-16T21:16:22.947Z,102185.72
2022-12-16T21:19:13.074Z,102187.31
2022-12-16T21:22:00.264Z,102179.22
2022-12-16T21:24:50.364Z,102181.66
2022-12-16T21:27:37.333Z,102176.69
2022-12-16T21:30:27.241Z,102175.75
2022-12-16T21:33:14.087Z,102164.56
2022-12-16T21:36:00.940Z,102175.31
2022-12-16T21:39:10.242Z,102164.56
2022-12-16T21:41:57.516Z,102164.72
2022-12-16T21:44:44.762Z,102166.16
2022-12-16T21:47:31.816Z,102162.63
2022-12-16T21:50:19.719Z,102167.19
2022-12-16T21:53:07.313Z,102159.63
2022-12-16T21:55:55.659Z,102157.97
2022-12-16T21:58:43.926Z,102149.22
2022-12-16T22:01:31.014Z,102147.16
2022-12-16T22:04:21.021Z,102143.44
2022-12-16T22:07:14.140Z,102132.13
2022-12-16T22:10:04.422Z,102126.28
2022-12-16T22:12:56.144Z,102127.09
2022-12-16T22:15:47.782Z,102120.59
2022-12-16T22:18:40.476Z,102125.84
2022-12-16T22:21:29.018Z,102119.53
2022-12-16T22:24:18.327Z,102121.72
2022-12-16T22:27:06.772Z,102118.31
2022-12-16T22:29:57.082Z,102109.19
2022-12-16T22:32:44.237Z,102105.94
2022-12-16T22:35:34.576Z,102107.81
2022-12-16T22:38:21.774Z,102100.22
2022-12-16T22:41:16.807Z,102102.41
2022-12-16T22:44:04.386Z,102100.34
2022-12-16T22:46:51.491Z,102094.94
2022-12-16T22:49:41.558Z,102092.53
2022-12-16T22:52:31.290Z,102090.69
2022-12-16T22:55:21.288Z,102084.94
2022-12-16T22:58:13.727Z,102084.91
2022-12-16T23:01:18.040Z,102086.75
2022-12-16T23:04:14.831Z,102086.63
2022-12-16T23:07:03.765Z,102087.53
2022-12-16T23:09:50.577Z,102087.94
2022-12-16T23:12:38.147Z,102093.47
2022-12-16T23:15:26.735Z,102084.75
2022-12-16T23:18:13.886Z,102082.81
2022-12-16T23:21:07.227Z,102087.00
2022-12-16T23:23:56.997Z,102083.66
2022-12-16T23:26:44.317Z,102079.97
2022-12-16T23:29:31.842Z,102073.28
2022-12-16T23:32:20.226Z,102073.03
2022-12-16T23:35:07.432Z,102073.81
2022-12-16T23:37:59.488Z,102069.72
2022-12-16T23:40:48.216Z,102071.66
2022-12-16T23:43:35.306Z,102064.84
2022-12-16T23:46:29.081Z,102067.66
2022-12-16T23:49:16.278Z,102072.66
2022-12-16T23:52:15.888Z,102059.81
2022-12-16T23:55:06.039Z,102064.75
2022-12-16T23:57:56.094Z,102048.13
